Time;durP1;ratioP1;P1;durP2;ratioP2;P2;SDS_P1;SDS_P2;PMS_P1;PMS_P2;Temp;Humidity;BMP_temperature;BMP_pressure;BME280_temperature;BME280_humidity;BME280_pressure;Samples;Min_cycle;Max_cycle;Signal;HPM_P1;HPM_P2
2023/11/08 00:04:17;;;;;;;3.50;3.30;;;6.00;99.90;;;6.58;94.17;98033.81;10434149;28;20283;-67
2023/11/08 00:09:20;;;;;;;4.03;3.73;;;5.90;99.90;;;6.68;94.21;98033.69;10434808;28;20233;-68
2023/11/08 00:14:24;;;;;;;4.47;4.00;;;5.90;99.90;;;6.51;95.02;98037.50;10436600;28;20225;-67
2023/11/08 00:19:28;;;;;;;4.47;4.17;;;5.80;99.90;;;6.42;95.85;98033.41;10444159;28;20235;-66
2023/11/08 00:24:31;;;;;;;5.17;3.67;;;5.70;99.90;;;6.21;96.99;98030.09;10432702;28;20224;-67
2023/11/08 00:29:34;;;;;;;4.33;3.80;;;5.50;99.90;;;6.18;96.72;98034.94;10420567;28;20250;-66
2023/11/08 00:34:39;;;;;;;5.67;3.47;;;5.40;99.90;;;6.04;97.45;98032.25;10428658;28;20228;-66
2023/11/08 00:39:42;;;;;;;6.30;3.80;;;5.30;99.90;;;6.05;98.36;98043.28;10428408;28;20238;-65
2023/11/08 00:44:45;;;;;;;4.20;3.80;;;5.40;99.90;;;6.11;98.12;98033.59;10434036;28;20225;-65
2023/11/08 00:49:50;;;;;;;3.83;3.50;;;5.50;99.90;;;6.19;98.34;98042.69;10428954;28;20234;-66
2023/11/08 00:54:53;;;;;;;4.37;3.27;;;5.60;99.90;;;6.48;94.96;98041.47;10432572;28;20308;-67
2023/11/08 00:59:57;;;;;;;4.60;3.40;;;5.80;99.90;;;6.58;92.63;98049.03;10437228;28;20230;-66
2023/11/08 01:05:01;;;;;;;4.03;3.03;;;6.00;99.90;;;6.64;92.51;98039.34;10447248;22;20316;-66
2023/11/08 01:10:06;;;;;;;4.30;2.57;;;6.10;99.90;;;6.74;92.03;98051.94;10427602;28;20290;-67
2023/11/08 01:15:11;;;;;;;2.97;2.70;;;6.20;99.90;;;6.89;91.57;98051.31;10436908;28;20225;-67
2023/11/08 01:20:15;;;;;;;4.20;2.67;;;6.30;99.90;;;6.89;92.07;98064.88;10441183;28;20738;-67
2023/11/08 01:25:19;;;;;;;3.27;2.97;;;6.30;99.90;;;7.16;89.58;98063.53;10435843;28;20324;-66
2023/11/08 01:30:22;;;;;;;5.13;3.10;;;6.50;99.90;;;6.97;92.40;98057.84;10435032;28;20696;-68
2023/11/08 01:35:27;;;;;;;5.53;3.63;;;6.50;99.90;;;6.89;95.42;98061.47;10440667;28;20682;-66
2023/11/08 01:40:30;;;;;;;3.57;2.70;;;6.40;99.90;;;6.81;96.12;98054.94;10437798;28;20217;-65
2023/11/08 01:45:33;;;;;;;4.97;3.33;;;6.30;99.90;;;6.71;97.35;98051.72;10438429;28;20236;-64
2023/11/08 01:50:38;;;;;;;3.57;3.00;;;6.30;99.90;;;6.69;97.53;98057.44;10443120;28;20294;-65
2023/11/08 01:55:42;;;;;;;3.87;3.20;;;6.20;99.90;;;6.73;98.93;98054.38;10440031;28;20236;-66
2023/11/08 02:00:50;;;;;;;4.53;3.40;;;6.20;99.90;;;6.70;98.70;98055.03;10440028;28;20308;-67
2023/11/08 02:05:56;;;;;;;3.93;2.80;;;6.20;99.90;;;6.83;97.88;98045.78;10447685;28;20320;-66
2023/11/08 02:10:59;;;;;;;3.43;3.17;;;6.30;99.90;;;6.63;99.52;98047.72;10441488;28;20232;-64
2023/11/08 02:16:03;;;;;;;3.60;2.93;;;6.20;99.90;;;6.62;100.00;98040.00;10443581;28;20233;-70
2023/11/08 02:21:08;;;;;;;3.00;2.70;;;6.20;99.90;;;6.66;97.90;98047.06;10448531;28;20315;-65
2023/11/08 02:26:13;;;;;;;3.10;2.90;;;6.20;99.90;;;6.67;97.10;98048.84;10448963;28;20334;-65
2023/11/08 02:31:17;;;;;;;3.77;3.10;;;6.30;99.90;;;6.72;96.80;98034.81;10444422;28;20237;-65
2023/11/08 02:36:20;;;;;;;3.73;2.70;;;6.30;99.90;;;6.71;98.43;98030.50;10450213;28;20225;-66
2023/11/08 02:41:25;;;;;;;4.30;2.77;;;6.20;99.90;;;6.54;98.70;98031.78;10441709;28;20273;-65
2023/11/08 02:46:28;;;;;;;4.23;2.70;;;6.00;99.90;;;6.40;99.23;98038.34;10449401;28;20251;-66
2023/11/08 02:51:31;;;;;;;3.33;2.53;;;5.90;99.90;;;6.42;99.62;98033.41;10442944;28;20609;-66
2023/11/08 02:56:40;;;;;;;2.67;2.40;;;6.00;99.90;;;6.48;100.00;98028.78;10446290;28;20236;-66
2023/11/08 03:01:44;;;;;;;2.53;2.17;;;6.00;99.90;;;6.62;98.18;98035.78;10444457;28;20225;-65
2023/11/08 03:06:47;;;;;;;2.83;2.60;;;6.10;99.90;;;7.12;95.15;98042.84;10442953;28;20239;-65
2023/11/08 03:11:52;;;;;;;6.30;4.33;;;6.50;99.90;;;7.08;95.75;98043.41;10445172;28;20683;-65
2023/11/08 03:16:55;;;;;;;3.97;3.57;;;6.50;99.90;;;6.67;97.49;98029.41;10444665;28;20762;-65
2023/11/08 03:22:00;;;;;;;4.90;3.30;;;6.20;99.90;;;6.80;96.33;98040.47;10450627;28;20432;-65
2023/11/08 03:27:05;;;;;;;2.77;2.63;;;6.20;99.90;;;6.59;98.58;98040.63;10438853;28;20684;-66
2023/11/08 03:32:09;;;;;;;5.03;3.60;;;6.10;99.90;;;6.74;99.02;98045.97;10441112;28;20229;-67
2023/11/08 03:37:12;;;;;;;3.10;2.90;;;6.20;99.90;;;6.74;99.06;98051.94;10444092;28;20723;-66
2023/11/08 03:42:16;;;;;;;3.73;3.43;;;6.20;99.90;;;6.68;100.00;98061.63;10443197;28;20228;-66
2023/11/08 03:47:20;;;;;;;5.97;3.10;;;6.20;99.90;;;6.70;98.74;98055.03;10440541;28;20657;-66
2023/11/08 03:52:24;;;;;;;3.30;3.10;;;6.10;99.90;;;6.71;99.10;98064.41;10442479;28;20228;-66
2023/11/08 03:57:29;;;;;;;3.60;2.83;;;6.20;99.90;;;6.79;100.00;98069.19;10444828;28;20292;-66
2023/11/08 04:02:32;;;;;;;3.10;2.73;;;6.20;99.90;;;6.80;100.00;98065.88;10439969;28;20697;-66
2023/11/08 04:07:36;;;;;;;3.80;3.10;;;6.30;99.90;;;6.82;100.00;98061.81;10439076;28;20228;-66
2023/11/08 04:12:40;;;;;;;4.53;3.27;;;6.20;99.90;;;6.73;100.00;98074.69;10432122;28;20666;-66
2023/11/08 04:17:43;;;;;;;4.03;2.57;;;6.10;99.90;;;6.72;100.00;98073.81;10441181;28;20229;-66
2023/11/08 04:22:47;;;;;;;3.93;2.43;;;6.10;99.90;;;6.70;100.00;98060.13;10438073;28;20229;-66
2023/11/08 04:27:51;;;;;;;4.80;3.33;;;6.10;99.90;;;6.72;100.00;98068.75;10439055;28;20224;-65
2023/11/08 04:32:54;;;;;;;3.33;2.93;;;6.10;99.90;;;6.72;100.00;98066.19;10440010;28;20236;-66
2023/11/08 04:37:57;;;;;;;4.57;2.90;;;6.10;99.90;;;6.76;100.00;98069.84;10438813;28;20274;-66
2023/11/08 04:43:05;;;;;;;3.57;3.27;;;6.10;99.90;;;6.76;100.00;98070.72;10438957;28;20316;-67
2023/11/08 04:48:09;;;;;;;6.60;5.13;;;6.10;99.90;;;6.85;100.00;98068.00;10439149;28;20231;-66
2023/11/08 04:53:12;;;;;;;7.60;4.80;;;6.20;99.90;;;6.79;100.00;98071.75;10435260;28;20630;-66
2023/11/08 04:58:17;;;;;;;4.20;3.80;;;6.10;99.90;;;6.67;100.00;98070.03;10441813;28;20225;-67
2023/11/08 05:03:20;;;;;;;4.07;3.60;;;6.00;99.90;;;6.62;100.00;98066.25;10432480;28;20344;-67
2023/11/08 05:08:25;;;;;;;3.40;3.10;;;5.90;99.90;;;6.50;100.00;98072.97;10440456;28;20233;-65
2023/11/08 05:13:29;;;;;;;3.00;2.70;;;5.90;99.90;;;6.49;100.00;98068.63;10434420;28;20221;-67
2023/11/08 05:18:33;;;;;;;4.03;2.60;;;5.80;99.90;;;6.58;100.00;98079.50;10435508;28;20286;-67
2023/11/08 05:23:36;;;;;;;5.23;2.73;;;5.90;99.90;;;6.53;100.00;98078.28;10436203;28;20229;-65
2023/11/08 05:28:41;;;;;;;3.43;2.50;;;5.90;99.90;;;6.66;100.00;98069.91;10434806;28;20232;-66
2023/11/08 05:33:44;;;;;;;5.17;2.97;;;6.10;99.90;;;6.71;100.00;98072.03;10445067;28;20229;-65
2023/11/08 05:38:47;;;;;;;4.67;3.20;;;6.10;99.90;;;6.88;100.00;98085.13;10446912;28;20731;-65
2023/11/08 05:43:53;;;;;;;4.27;2.77;;;6.20;99.90;;;6.87;100.00;98075.75;10443304;28;20307;-66
2023/11/08 05:48:57;;;;;;;4.47;3.83;;;6.30;99.90;;;6.87;100.00;98083.34;10439504;28;20233;-67
2023/11/08 05:54:00;;;;;;;4.20;3.33;;;6.20;99.90;;;6.83;100.00;98076.25;10440992;28;20696;-65
2023/11/08 05:59:06;;;;;;;3.70;3.40;;;6.20;99.90;;;6.70;100.00;98084.63;10441293;28;20217;-65
2023/11/08 06:04:09;;;;;;;3.70;3.30;;;6.10;99.90;;;6.65;100.00;98083.41;10445618;28;20232;-64
2023/11/08 06:09:14;;;;;;;4.53;2.80;;;6.00;99.90;;;6.58;100.00;98088.75;10442788;28;20281;-65
2023/11/08 06:14:19;;;;;;;3.80;3.33;;;5.90;99.90;;;6.60;100.00;98090.66;10448040;28;20236;-64
2023/11/08 06:19:22;;;;;;;5.07;3.43;;;5.90;99.90;;;6.59;100.00;98093.09;10439943;28;20255;-65
2023/11/08 06:24:26;;;;;;;4.13;3.50;;;5.90;99.90;;;6.44;100.00;98096.22;10443300;28;20225;-66
2023/11/08 06:29:36;;;;;;;4.43;3.60;;;5.80;99.90;;;6.34;100.00;98097.94;10446138;28;20233;-66
2023/11/08 06:34:41;;;;;;;5.20;4.00;;;5.70;99.90;;;6.40;100.00;98095.88;10443174;28;20227;-65
2023/11/08 06:39:44;;;;;;;4.93;3.67;;;5.70;99.90;;;6.37;100.00;98098.16;10444911;28;20232;-64
2023/11/08 06:44:49;;;;;;;6.50;4.33;;;5.70;99.90;;;6.47;100.00;98105.75;10447085;28;20228;-64
2023/11/08 06:49:52;;;;;;;6.40;5.27;;;5.70;99.90;;;6.44;100.00;98105.47;10443734;28;20239;-67
2023/11/08 06:54:55;;;;;;;6.27;5.67;;;5.70;99.90;;;6.31;100.00;98112.16;10448979;28;20615;-65
2023/11/08 07:00:01;;;;;;;5.03;4.60;;;5.60;99.90;;;6.48;100.00;98115.13;10443181;28;20225;-66
2023/11/08 07:05:05;;;;;;;5.13;4.63;;;5.80;99.90;;;7.01;100.00;98128.47;10443288;28;20650;-65
2023/11/08 07:10:11;;;;;;;4.63;4.13;;;6.20;99.90;;;7.43;100.00;98129.88;10443724;28;20312;-66
2023/11/08 07:15:16;;;;;;;5.80;4.10;;;6.70;99.90;;;8.00;96.83;98137.38;10447774;28;21160;-66
2023/11/08 07:20:19;;;;;;;5.90;4.13;;;7.20;99.90;;;8.24;95.19;98134.81;10440631;28;20704;-66
2023/11/08 07:25:22;;;;;;;4.63;4.20;;;7.40;99.90;;;8.54;93.25;98139.53;10444567;28;20233;-66
2023/11/08 07:30:27;;;;;;;3.57;2.90;;;7.80;99.90;;;8.75;91.27;98144.34;10439404;28;20221;-66
2023/11/08 07:35:31;;;;;;;3.83;3.13;;;8.00;99.90;;;8.97;91.12;98139.94;10446956;28;20244;-65
2023/11/08 07:40:34;;;;;;;3.03;2.73;;;8.20;99.90;;;9.14;91.54;98138.50;10443400;28;20233;-66
2023/11/08 07:45:39;;;;;;;4.23;3.20;;;8.40;99.90;;;9.48;87.60;98130.53;10442573;28;20232;-66
2023/11/08 07:50:42;;;;;;;3.17;2.87;;;8.70;99.90;;;9.63;87.84;98141.75;10443092;28;20715;-65
2023/11/08 07:55:45;;;;;;;4.67;3.17;;;8.90;99.90;;;10.01;86.63;98148.41;10443215;28;20228;-63
2023/11/08 08:00:50;;;;;;;4.63;3.17;;;9.20;99.90;;;10.28;85.36;98143.34;10437180;28;20233;-65
2023/11/08 08:05:53;;;;;;;4.55;4.13;;;9.60;99.90;;;10.51;82.93;98148.22;10443976;28;20286;-66
2023/11/08 08:10:57;;;;;;;4.85;3.22;;;9.80;99.90;;;10.76;81.82;98165.94;10440285;28;20229;-64
2023/11/08 08:16:02;;;;;;;3.75;2.45;;;9.90;99.90;;;11.16;78.54;98152.09;10441108;28;20795;-66
2023/11/08 08:21:05;;;;;;;3.83;2.50;;;10.40;99.90;;;11.48;75.49;98162.56;10442171;28;20658;-64
2023/11/08 08:26:10;;;;;;;3.20;2.20;;;10.90;99.90;;;11.59;75.00;98164.84;10441663;28;20255;-65
2023/11/08 08:31:15;;;;;;;2.72;2.50;;;11.10;99.90;;;11.97;74.09;98156.84;10438940;28;20255;-66
2023/11/08 08:36:18;;;;;;;3.83;1.80;;;11.30;99.90;;;12.18;72.24;98159.72;10441361;28;20596;-66
2023/11/08 08:41:21;;;;;;;2.53;2.30;;;11.50;99.90;;;12.29;70.34;98153.50;10442015;28;20540;-64
2023/11/08 08:46:26;;;;;;;2.75;1.83;;;11.80;99.90;;;12.33;70.06;98154.53;10436536;28;20225;-65
2023/11/08 08:51:29;;;;;;;4.25;1.92;;;11.70;99.90;;;12.39;69.38;98154.91;10439738;28;20227;-64
2023/11/08 08:56:33;;;;;;;3.97;1.98;;;11.90;99.90;;;12.38;68.71;98153.13;10438449;28;20712;-65
2023/11/08 09:01:37;;;;;;;2.15;1.60;;;11.80;99.90;;;11.95;69.84;98153.28;10436337;28;20236;-65
2023/11/08 09:06:41;;;;;;;2.20;1.98;;;10.90;99.90;;;11.75;70.36;98146.13;10436728;28;20254;-65
2023/11/08 09:11:44;;;;;;;2.90;1.67;;;10.90;99.90;;;11.82;69.33;98145.72;10453490;28;20738;-65
2023/11/08 09:16:49;;;;;;;4.07;2.00;;;10.90;99.90;;;11.78;72.33;98143.75;10449724;28;20298;-64
2023/11/08 09:21:52;;;;;;;3.22;2.33;;;11.00;99.90;;;12.06;69.78;98149.66;10449891;28;20242;-65
2023/11/08 09:26:55;;;;;;;2.20;2.00;;;11.40;99.90;;;12.40;67.90;98147.28;10456337;28;20725;-65
2023/11/08 09:32:03;;;;;;;4.38;3.97;;;12.00;99.90;;;12.65;67.36;98147.69;10452341;28;20286;-65
2023/11/08 09:37:08;;;;;;;2.00;1.75;;;12.30;99.90;;;12.91;64.54;98141.41;10451685;28;20307;-66
2023/11/08 09:42:11;;;;;;;2.20;2.00;;;12.40;99.90;;;13.07;65.18;98147.41;10454224;28;20323;-64
2023/11/08 09:47:16;;;;;;;1.77;1.67;;;12.40;99.90;;;13.17;65.41;98145.34;10450475;28;20635;-65
2023/11/08 09:52:19;;;;;;;3.08;1.83;;;12.60;99.90;;;13.29;64.55;98151.13;10450655;28;20711;-64
2023/11/08 09:57:25;;;;;;;2.13;1.90;;;12.70;99.90;;;13.14;63.24;98150.31;10453866;28;20316;-64
2023/11/08 10:02:30;;;;;;;2.20;1.58;;;12.40;99.90;;;12.87;63.99;98148.03;10445569;28;20601;-64
2023/11/08 10:07:37;;;;;;;1.90;1.75;;;12.20;99.90;;;12.64;64.73;98141.69;10451794;28;20244;-65
2023/11/08 10:12:41;;;;;;;2.83;1.70;;;12.30;99.90;;;12.56;64.38;98149.00;10450120;28;20525;-64
2023/11/08 10:17:49;;;;;;;1.83;1.30;;;12.20;99.90;;;12.47;65.84;98138.22;10449350;28;20696;-65
2023/11/08 10:23:25;;;;;;;1.60;1.50;;;11.90;99.90;;;12.79;64.45;98136.50;10442662;28;20224;-64
2023/11/08 10:28:28;;;;;;;3.60;1.80;;;12.30;99.90;;;12.67;63.43;98126.47;10443149;28;20225;-64
2023/11/08 10:33:34;;;;;;;2.53;1.83;;;12.30;99.90;;;12.58;65.45;98124.31;10444994;28;20693;-64
2023/11/08 10:38:39;;;;;;;1.77;1.65;;;12.00;99.90;;;12.75;65.37;98114.06;10442638;28;20707;-66
2023/11/08 10:43:43;;;;;;;2.03;1.58;;;12.20;99.90;;;12.96;63.85;98115.19;10449042;28;20229;-65
2023/11/08 10:48:48;;;;;;;2.00;1.40;;;12.30;99.90;;;12.85;62.51;98106.06;10440481;28;20906;-64
2023/11/08 10:53:51;;;;;;;1.50;1.40;;;12.20;99.90;;;12.57;61.86;98108.84;10443988;28;20233;-65
2023/11/08 10:58:59;;;;;;;1.60;1.50;;;11.90;99.90;;;12.79;62.00;98105.72;10439160;28;20657;-65
2023/11/08 11:04:06;;;;;;;1.95;1.23;;;12.30;99.90;;;13.00;59.64;98105.97;10442313;28;20225;-66
2023/11/08 11:09:11;;;;;;;1.65;1.40;;;12.60;99.90;;;13.02;59.03;98105.25;10446874;28;20245;-66
2023/11/08 11:14:27;;;;;;;1.30;1.30;;;12.40;99.90;;;12.94;59.43;98091.13;10442945;28;20693;-66
2023/11/08 11:19:33;;;;;;;1.45;1.35;;;12.20;99.90;;;12.69;60.10;98082.97;10444244;28;20248;-66
2023/11/08 11:24:39;;;;;;;1.50;1.40;;;12.00;99.90;;;12.76;58.84;98082.47;10440880;28;20256;-65
2023/11/08 11:29:44;;;;;;;1.50;1.30;;;12.10;99.90;;;12.47;60.29;98086.06;10440501;28;20232;-66
2023/11/08 11:34:49;;;;;;;1.60;1.50;;;11.80;99.90;;;12.46;59.15;98085.19;10438631;28;20303;-65
2023/11/08 11:40:14;;;;;;;4.35;3.78;;;11.60;99.90;;;12.32;61.37;98081.00;10442557;28;20782;-65
2023/11/08 11:45:21;;;;;;;1.80;1.70;;;11.40;99.90;;;12.65;61.65;98070.78;10437002;28;20220;-65
2023/11/08 11:50:27;;;;;;;1.65;1.50;;;11.80;99.90;;;12.70;59.45;98069.34;10441892;28;20237;-66
2023/11/08 11:55:32;;;;;;;1.33;1.33;;;12.10;99.90;;;12.73;59.85;98066.91;10440833;28;20247;-65
2023/11/08 12:00:35;;;;;;;1.65;1.30;;;12.00;99.90;;;12.55;59.79;98057.47;10434157;28;20696;-65
2023/11/08 12:05:41;;;;;;;1.58;1.17;;;11.90;99.90;;;12.42;59.79;98055.09;10438373;28;20243;-66
2023/11/08 12:10:45;;;;;;;1.45;1.35;;;11.80;99.90;;;12.30;61.27;98047.59;10439015;28;20248;-66
2023/11/08 12:16:00;;;;;;;1.40;1.30;;;11.60;99.90;;;12.26;63.59;98049.94;10437989;28;20279;-66
2023/11/08 12:21:05;;;;;;;1.40;1.40;;;11.50;99.90;;;12.50;62.28;98042.66;10439777;28;20235;-65
2023/11/08 12:26:08;;;;;;;1.75;1.50;;;11.70;99.90;;;12.60;62.26;98042.34;10440600;28;20244;-67
2023/11/08 12:31:13;;;;;;;1.60;1.50;;;11.80;99.90;;;12.71;61.22;98025.81;10432213;28;20251;-65
2023/11/08 12:36:18;;;;;;;1.33;1.08;;;12.10;99.90;;;12.90;61.00;98026.75;10432363;28;20229;-65
2023/11/08 12:41:21;;;;;;;1.45;1.42;;;12.40;99.90;;;13.26;60.51;98018.34;10439118;28;20253;-66
2023/11/08 12:46:24;;;;;;;1.50;1.40;;;12.70;99.90;;;13.32;59.51;98022.03;10436709;28;20279;-66
2023/11/08 12:51:46;;;;;;;1.42;1.33;;;12.70;99.90;;;13.32;59.21;98017.78;10439781;28;20303;-65
2023/11/08 12:56:50;;;;;;;1.83;1.73;;;12.80;99.90;;;13.38;58.97;98006.91;10439546;28;20603;-66
2023/11/08 13:02:11;;;;;;;1.60;1.55;;;12.80;99.90;;;13.12;61.15;97992.78;10438570;28;20260;-67
2023/11/08 13:07:16;;;;;;;1.80;1.70;;;12.40;99.90;;;12.99;61.74;97987.06;10438683;28;20225;-65
2023/11/08 13:12:19;;;;;;;1.58;1.45;;;12.30;99.90;;;12.88;62.02;97982.16;10451243;28;20320;-65
2023/11/08 13:17:23;;;;;;;1.60;1.48;;;12.20;99.90;;;12.62;62.73;97974.94;10437516;28;20947;-66
2023/11/08 13:22:27;;;;;;;1.90;1.80;;;12.00;99.90;;;12.66;62.83;97969.97;10444746;28;20232;-66
2023/11/08 13:27:30;;;;;;;1.70;1.60;;;11.90;99.90;;;12.85;63.30;97963.28;10440251;28;20337;-64
2023/11/08 13:32:34;;;;;;;1.63;1.35;;;12.20;99.90;;;12.85;62.24;97962.41;10438107;28;20241;-65
2023/11/08 13:37:39;;;;;;;2.47;1.50;;;12.30;99.90;;;12.90;60.45;97957.47;10438250;28;20843;-65
2023/11/08 13:42:42;;;;;;;1.42;1.42;;;12.30;99.90;;;12.93;59.47;97955.94;10432981;28;20221;-66
2023/11/08 13:47:45;;;;;;;1.75;1.65;;;12.40;99.90;;;12.75;59.56;97955.91;10441013;28;20217;-63
2023/11/08 13:52:51;;;;;;;1.92;1.80;;;12.40;99.90;;;12.78;60.64;97947.50;10443288;28;20233;-64
2023/11/08 13:57:54;;;;;;;1.70;1.60;;;12.10;99.90;;;12.69;60.85;97944.47;10445269;28;20229;-65
2023/11/08 14:02:59;;;;;;;1.85;1.75;;;11.90;99.90;;;12.67;60.60;97948.66;10445681;28;20233;-64
2023/11/08 14:08:04;;;;;;;2.15;1.63;;;12.00;99.90;;;12.52;61.87;97946.19;10444379;28;20232;-65
2023/11/08 14:13:07;;;;;;;1.65;1.55;;;11.80;99.90;;;12.47;62.18;97942.50;10445169;28;20233;-65
2023/11/08 14:18:11;;;;;;;1.77;1.63;;;11.80;99.90;;;12.49;61.95;97941.78;10446475;28;20243;-65
2023/11/08 14:23:15;;;;;;;1.50;1.40;;;11.80;99.90;;;12.45;62.08;97945.00;10445113;28;20236;-65
2023/11/08 14:28:19;;;;;;;1.60;1.50;;;11.80;99.90;;;12.33;63.35;97939.22;10444885;28;20621;-64
2023/11/08 14:33:24;;;;;;;1.50;1.40;;;11.60;99.90;;;12.28;64.19;97946.72;10446935;28;20225;-65
2023/11/08 14:38:30;;;;;;;1.80;1.48;;;11.60;99.90;;;12.18;64.64;97932.50;10443789;28;20233;-64
2023/11/08 14:43:33;;;;;;;1.63;1.35;;;11.40;99.90;;;12.21;63.79;97933.50;10450095;28;20286;-66
2023/11/08 14:48:38;;;;;;;1.80;1.70;;;11.40;99.90;;;12.24;64.75;97928.53;10452333;28;20232;-66
2023/11/08 14:53:43;;;;;;;2.65;1.75;;;11.30;99.90;;;12.14;66.51;97925.50;10434191;28;20324;-65
2023/11/08 14:58:47;;;;;;;2.38;1.70;;;11.30;99.90;;;12.21;65.08;97928.34;10441992;28;20276;-66
2023/11/08 15:03:50;;;;;;;4.45;1.90;;;11.30;99.90;;;12.08;65.63;97932.84;10442865;28;20724;-68
2023/11/08 15:08:55;;;;;;;1.92;1.73;;;11.20;99.90;;;12.13;66.68;97923.75;10437193;28;20236;-63
2023/11/08 15:14:18;;;;;;;1.75;1.65;;;11.20;99.90;;;12.06;66.17;97913.97;10441152;28;20224;-64
2023/11/08 15:19:22;;;;;;;2.22;1.98;;;11.20;99.90;;;12.14;65.98;97910.13;10442220;28;20348;-64
2023/11/08 15:24:30;;;;;;;2.75;1.80;;;11.20;99.90;;;12.01;66.13;97905.16;10435811;28;20858;-63
2023/11/08 15:29:33;;;;;;;2.63;2.42;;;11.20;99.90;;;11.87;67.34;97901.84;10439398;28;20314;-65
2023/11/08 15:34:36;;;;;;;2.33;2.15;;;11.00;99.90;;;11.50;69.42;97905.00;10442424;28;20645;-65
2023/11/08 15:39:41;;;;;;;3.80;3.50;;;10.60;99.90;;;11.25;69.53;97901.91;10440908;28;20221;-66
2023/11/08 15:44:44;;;;;;;3.80;3.50;;;10.40;99.90;;;11.04;70.33;97902.50;10441741;28;20256;-64
2023/11/08 15:49:47;;;;;;;3.03;2.28;;;10.20;99.90;;;10.75;71.42;97898.28;10440338;28;20599;-64
2023/11/08 15:54:52;;;;;;;4.32;3.72;;;9.90;99.90;;;10.54;72.79;97900.50;10437924;28;20316;-64
2023/11/08 15:59:56;;;;;;;4.65;3.90;;;9.60;99.90;;;10.30;75.86;97902.53;10431563;28;20236;-64
2023/11/08 16:04:59;;;;;;;5.82;3.17;;;9.40;99.90;;;9.98;77.12;97902.22;10445854;28;20729;-63
2023/11/08 16:10:05;;;;;;;3.10;2.80;;;9.10;99.90;;;9.70;78.16;97898.03;10445531;28;20228;-65
2023/11/08 16:15:10;;;;;;;2.97;2.72;;;8.80;99.90;;;9.51;80.58;97887.47;10441760;28;20231;-65
2023/11/08 16:20:13;;;;;;;7.80;5.70;;;8.60;99.90;;;9.36;80.32;97888.31;10441473;28;20312;-66
2023/11/08 16:25:18;;;;;;;8.38;7.57;;;8.50;99.90;;;9.12;82.41;97882.53;10440992;28;20311;-66
2023/11/08 16:30:21;;;;;;;5.10;4.60;;;8.20;99.90;;;8.92;83.18;97871.06;10438982;28;20345;-63
2023/11/08 16:35:44;;;;;;;5.10;4.50;;;8.00;99.90;;;8.69;84.66;97863.63;10445655;28;20645;-65
2023/11/08 16:40:49;;;;;;;6.43;5.83;;;7.80;99.90;;;8.63;84.55;97858.16;10439561;28;20306;-67
2023/11/08 16:45:52;;;;;;;6.25;5.88;;;7.70;99.90;;;8.54;85.94;97864.41;10440945;28;20328;-64
2023/11/08 16:50:55;;;;;;;8.33;7.53;;;7.70;99.90;;;8.51;86.11;97879.50;10444032;28;20299;-65
2023/11/08 16:56:00;;;;;;;11.57;10.70;;;7.60;99.90;;;8.38;86.59;97873.47;10431114;28;20233;-66
2023/11/08 17:01:04;;;;;;;8.93;8.13;;;7.50;99.90;;;8.28;87.30;97869.44;10418918;28;20320;-63
2023/11/08 17:06:10;;;;;;;6.13;5.70;;;7.30;99.90;;;8.01;88.39;97874.47;10428752;28;20249;-63
2023/11/08 17:11:15;;;;;;;3.80;3.40;;;7.20;99.90;;;7.87;88.86;97871.00;10432103;28;20607;-63
2023/11/08 17:16:18;;;;;;;4.13;3.83;;;7.10;99.90;;;7.82;88.85;97881.66;10437540;28;20221;-63
2023/11/08 17:21:22;;;;;;;2.93;2.70;;;7.00;99.90;;;7.63;89.19;97879.50;10432810;28;20327;-64
2023/11/08 17:26:26;;;;;;;3.80;3.60;;;6.80;99.90;;;7.48;89.99;97871.69;10431466;28;20240;-63
2023/11/08 17:31:30;;;;;;;3.00;2.80;;;6.70;99.90;;;7.48;90.38;97871.69;10438371;28;20889;-64
2023/11/08 17:36:33;;;;;;;4.13;2.60;;;6.60;99.90;;;7.38;91.14;97871.81;10445911;28;20223;-64
2023/11/08 17:41:39;;;;;;;2.30;2.10;;;6.50;99.90;;;7.31;90.70;97875.63;10445278;28;20297;-64
2023/11/08 17:46:43;;;;;;;3.33;2.50;;;6.40;99.90;;;7.12;91.62;97870.88;10447367;28;20275;-63
2023/11/08 17:51:46;;;;;;;3.10;2.40;;;6.30;99.90;;;7.11;90.89;97873.34;10448840;28;20312;-65
2023/11/08 17:56:51;;;;;;;2.70;2.23;;;6.30;99.90;;;6.98;92.28;97859.78;10445782;28;20350;-65
2023/11/08 18:01:55;;;;;;;4.40;2.60;;;6.20;99.90;;;6.81;92.71;97855.16;10445234;28;20233;-64
2023/11/08 18:06:59;;;;;;;3.07;2.87;;;6.00;99.90;;;6.69;93.62;97846.66;10448674;28;20264;-64
2023/11/08 18:12:04;;;;;;;4.10;3.70;;;5.90;99.90;;;6.63;94.29;97848.75;10441516;28;20255;-64
2023/11/08 18:17:09;;;;;;;15.77;10.40;;;5.90;99.90;;;6.59;94.33;97840.03;10425664;28;20309;-64
2023/11/08 18:22:13;;;;;;;11.77;7.63;;;5.80;99.90;;;6.42;95.04;97832.84;10427164;28;20233;-64
2023/11/08 18:27:17;;;;;;;22.70;16.37;;;5.60;99.90;;;6.37;94.50;97824.03;10431866;28;20264;-65
2023/11/08 18:32:21;;;;;;;17.33;15.53;;;5.60;99.90;;;6.32;94.80;97819.50;10429926;28;20391;-65
2023/11/08 18:37:24;;;;;;;11.80;10.70;;;5.50;99.90;;;6.18;96.11;97814.16;10426164;28;20233;-64
2023/11/08 18:42:29;;;;;;;7.70;7.10;;;5.40;99.90;;;6.09;96.54;97814.38;10426368;28;20311;-64
2023/11/08 18:47:32;;;;;;;5.33;4.93;;;5.30;99.90;;;6.03;96.38;97806.31;10434720;28;20225;-65
2023/11/08 18:52:35;;;;;;;4.63;4.33;;;5.30;99.90;;;5.97;96.29;97808.41;10429642;28;20229;-64
2023/11/08 18:57:39;;;;;;;4.20;3.80;;;5.20;99.90;;;5.92;97.29;97817.31;10424015;28;20423;-65
2023/11/08 19:02:43;;;;;;;4.97;3.30;;;5.20;99.90;;;5.84;97.31;97817.63;10429026;28;20233;-63
2023/11/08 19:07:50;;;;;;;15.40;13.87;;;5.10;99.90;;;5.83;97.44;97820.91;10426011;28;20256;-64
2023/11/08 19:12:57;;;;;;;9.03;8.23;;;5.10;99.90;;;5.75;98.12;97810.97;10434186;28;20255;-64
2023/11/08 19:18:00;;;;;;;7.20;6.50;;;5.00;99.90;;;5.65;98.04;97800.16;10427905;28;20230;-64
2023/11/08 19:23:04;;;;;;;6.90;4.97;;;4.90;99.90;;;5.54;98.27;97792.50;10424629;28;20229;-65
2023/11/08 19:28:24;;;;;;;12.27;11.07;;;4.80;99.90;;;5.53;98.03;97790.75;10429200;28;20233;-63
2023/11/08 19:33:29;;;;;;;8.37;7.57;;;4.80;99.90;;;5.42;98.50;97784.88;10428303;28;20302;-64
2023/11/08 19:38:32;;;;;;;13.07;11.20;;;4.80;99.90;;;5.47;98.88;97780.16;10422973;28;20233;-65
2023/11/08 19:43:37;;;;;;;14.20;12.70;;;4.80;99.90;;;5.53;99.14;97770.47;10432490;28;20331;-64
2023/11/08 19:48:43;;;;;;;16.33;11.07;;;4.80;99.90;;;5.50;99.68;97763.53;10434725;28;20236;-64
2023/11/08 19:53:46;;;;;;;14.23;10.97;;;4.80;99.90;;;5.49;100.00;97753.25;10424303;28;20228;-63
2023/11/08 19:58:51;;;;;;;17.30;15.30;;;4.80;99.90;;;5.41;99.96;97761.19;10428193;28;20216;-64
2023/11/08 20:03:54;;;;;;;15.50;12.80;;;4.70;99.90;;;5.41;100.00;97761.19;10431059;28;20233;-65
2023/11/08 20:08:57;;;;;;;6.70;5.13;;;4.70;99.90;;;5.36;100.00;97737.16;10425073;28;20228;-64
2023/11/08 20:14:02;;;;;;;3.30;3.00;;;4.60;99.90;;;4.97;100.00;97740.94;10427768;28;20256;-63
2023/11/08 20:19:05;;;;;;;3.80;3.50;;;4.30;99.90;;;4.78;100.00;97737.78;10427002;28;20276;-63
2023/11/08 20:24:09;;;;;;;4.43;4.03;;;4.10;99.90;;;4.90;100.00;97733.66;10429020;28;20232;-63
2023/11/08 20:29:13;;;;;;;7.43;6.83;;;4.30;99.90;;;4.94;100.00;97735.66;10434192;28;20230;-63
2023/11/08 20:34:17;;;;;;;4.20;3.90;;;4.30;99.90;;;4.83;100.00;97728.88;10430705;28;20229;-64
2023/11/08 20:39:21;;;;;;;3.23;2.93;;;4.20;99.90;;;4.69;100.00;97725.31;10432245;28;20229;-63
2023/11/08 20:44:26;;;;;;;3.70;3.40;;;4.10;99.90;;;4.74;100.00;97723.13;10435819;28;20708;-63
2023/11/08 20:49:29;;;;;;;5.20;4.03;;;4.10;99.90;;;4.83;100.00;97716.22;10438283;28;20263;-64
2023/11/08 20:54:32;;;;;;;4.47;4.10;;;4.20;99.90;;;4.83;100.00;97715.34;10437002;28;20235;-64
2023/11/08 20:59:37;;;;;;;4.50;4.10;;;4.10;99.90;;;4.83;100.00;97716.22;10429878;28;20636;-64
2023/11/08 21:04:41;;;;;;;5.47;4.97;;;4.20;99.90;;;4.68;100.00;97707.47;10431619;28;20233;-63
2023/11/08 21:09:44;;;;;;;6.67;5.97;;;4.00;99.90;;;4.65;100.00;97700.50;10430981;28;20882;-63
2023/11/08 21:14:49;;;;;;;8.90;7.40;;;4.00;99.90;;;4.58;100.00;97695.75;10430322;28;20228;-62
2023/11/08 21:19:53;;;;;;;8.27;6.20;;;4.00;99.90;;;4.60;100.00;97686.63;10432396;28;20236;-63